Depoe Bay, Oregon
Current Conditions -  °F | °C
As of 4:35 PM on Saturday 25 Oct 2014 (Local Time) from KONP Reporting Station
Drizzle Drizzle  
Wind Chill: 54°   Ceiling: 1200
Heat Index: 54°   Visibility: 4mi
Dew Point: 52°   Wind: 26mph
Humidity: 94%   Direction: 250°WSW
Pressure: 29.68"   Gusts: 36mph
Location:  44.81°N, 124.06°W
Report Text: KONP 252335Z AUTO 25023G31KT 4SM DZ SCT007 BKN012 OVC017 12/11 A2968 RMK AO2
Loading
Personal Weather Stations






























Interactive Weather Map New forecast layout! Learn more

10-Day Weather Forecast

Advertisements
Track Severe Weather on mobile